Time;durP1;ratioP1;P1;durP2;ratioP2;P2;SDS_P1;SDS_P2;PMS_P1;PMS_P2;Temp;Humidity;BMP_temperature;BMP_pressure;BME280_temperature;BME280_humidity;BME280_pressure;Samples;Min_cycle;Max_cycle;Signal;HPM_P1;HPM_P2
2022/07/07 00:00:35;;;;;;;3.30;1.30;;;15.30;99.90;;;-141.84;51.17;20021.16;5010159;28;20661;-60
2022/07/07 00:03:03;;;;;;;1.03;0.97;;;15.30;99.90;;;-141.84;51.73;20017.09;5009793;28;20706;-59
2022/07/07 00:05:31;;;;;;;2.60;1.20;;;15.30;99.90;;;-141.84;51.54;20027.25;5009999;28;20199;-59
2022/07/07 00:08:00;;;;;;;3.88;1.23;;;15.30;99.90;;;-141.84;51.93;20039.44;5010606;28;20206;-58
2022/07/07 00:10:28;;;;;;;2.25;1.10;;;15.20;99.90;;;-141.84;52.25;20019.13;5009782;28;20541;-60
2022/07/07 00:12:57;;;;;;;1.98;1.45;;;15.20;99.90;;;-141.84;52.36;19990.66;5009541;28;20804;-60
2022/07/07 00:15:25;;;;;;;2.03;1.07;;;15.30;99.90;;;-141.84;52.06;20008.94;5010844;28;20226;-61
2022/07/07 00:17:54;;;;;;;4.43;1.10;;;15.20;99.90;;;-141.84;51.69;20031.31;5010789;28;20246;-59
2022/07/07 00:20:23;;;;;;;2.93;1.37;;;15.30;99.90;;;-141.84;51.65;20041.47;5017048;28;20602;-60
2022/07/07 00:22:51;;;;;;;1.42;1.17;;;15.30;99.90;;;-141.84;52.13;20029.28;5030706;28;20423;-62
2022/07/07 00:25:19;;;;;;;1.23;1.10;;;15.30;99.90;;;-141.84;51.87;20059.75;5030316;28;20250;-58
2022/07/07 00:27:48;;;;;;;1.80;1.08;;;15.40;99.90;;;-141.84;51.61;20055.69;5030322;28;20229;-60
2022/07/07 00:30:16;;;;;;;3.67;1.20;;;15.40;99.90;;;-141.84;51.66;20021.16;5030230;28;20323;-60
2022/07/07 00:32:44;;;;;;;3.03;1.48;;;15.40;99.90;;;-141.84;51.18;20055.69;5030221;28;20225;-60
2022/07/07 00:35:14;;;;;;;2.03;1.33;;;15.50;99.90;;;-141.84;51.59;20055.69;5030761;28;20575;-61
2022/07/07 00:37:42;;;;;;;3.43;1.30;;;15.40;99.90;;;-141.84;51.56;20057.72;5030595;28;20259;-58
2022/07/07 00:40:12;;;;;;;2.47;1.60;;;15.40;99.90;;;-141.84;51.00;20061.78;5030363;28;20253;-60
2022/07/07 00:42:40;;;;;;;3.28;1.45;;;15.40;99.90;;;-141.84;50.73;20057.72;5029684;28;20774;-60
2022/07/07 00:45:10;;;;;;;3.92;1.15;;;15.50;99.90;;;-141.84;51.24;20067.88;5030348;28;20318;-60
2022/07/07 00:47:40;;;;;;;1.58;1.40;;;15.50;99.90;;;-141.84;51.01;20104.47;5030257;28;20317;-61
2022/07/07 00:50:10;;;;;;;2.88;1.35;;;15.60;99.90;;;-141.84;50.76;20094.31;5030283;28;20677;-61
2022/07/07 00:52:40;;;;;;;4.30;1.55;;;15.60;99.90;;;-141.84;51.01;20069.94;5030199;28;20233;-60
2022/07/07 00:55:10;;;;;;;3.70;1.55;;;15.70;99.90;;;-141.84;51.14;20118.69;5030255;28;20233;-62
2022/07/07 00:57:39;;;;;;;1.73;1.20;;;15.70;99.90;;;-141.84;50.92;20132.94;5029706;28;20299;-60
2022/07/07 01:00:13;;;;;;;1.52;1.15;;;15.70;99.90;;;-141.84;50.85;20122.78;5030023;28;20254;-59
2022/07/07 01:02:43;;;;;;;1.30;1.10;;;15.80;99.90;;;-141.84;51.00;20098.38;5029492;28;20236;-60
2022/07/07 01:05:12;;;;;;;2.63;1.38;;;15.70;99.90;;;-141.84;50.62;20086.19;5030556;28;20182;-60
2022/07/07 01:07:44;;;;;;;1.90;1.33;;;15.70;99.90;;;-141.84;50.29;20124.81;5032386;28;20258;-59
2022/07/07 01:10:12;;;;;;;2.28;1.10;;;15.80;99.90;;;-141.84;50.70;20124.81;5033536;28;20317;-59
2022/07/07 01:12:44;;;;;;;1.58;1.20;;;15.90;99.90;;;-141.84;50.79;20134.97;5032978;28;20313;-61
2022/07/07 01:15:14;;;;;;;1.52;1.10;;;15.80;99.90;;;-141.84;51.59;20122.78;5033366;28;20302;-59
2022/07/07 01:17:43;;;;;;;4.20;1.30;;;15.80;99.90;;;-141.84;51.29;20151.22;5033354;28;20658;-60
2022/07/07 01:20:13;;;;;;;2.72;1.40;;;15.80;99.90;;;-141.84;51.14;20122.78;5033757;28;20244;-61
2022/07/07 01:22:48;;;;;;;1.80;1.17;;;15.90;99.90;;;-141.84;51.86;20134.97;5033290;28;20889;-60
2022/07/07 01:25:17;;;;;;;1.58;0.90;;;15.90;99.90;;;-141.84;52.92;20122.78;5033314;28;20315;-58
2022/07/07 01:27:45;;;;;;;1.63;1.20;;;15.90;99.90;;;-141.84;54.91;20059.75;5033462;28;20249;-60
2022/07/07 01:30:14;;;;;;;2.25;1.20;;;15.80;99.90;;;-141.84;54.94;20029.28;5033290;28;20222;-60
2022/07/07 01:32:43;;;;;;;2.28;1.27;;;15.70;99.90;;;-141.84;55.03;20069.94;5033094;28;20634;-59
2022/07/07 01:35:12;;;;;;;5.53;1.02;;;15.70;99.90;;;-141.84;53.35;20094.31;5033630;28;20226;-59
2022/07/07 01:37:40;;;;;;;1.58;1.10;;;15.60;99.90;;;-141.84;56.04;20006.91;5032942;28;20673;-61
2022/07/07 01:40:10;;;;;;;3.13;1.30;;;15.50;99.90;;;-141.84;58.06;19978.47;5032848;28;20574;-60
2022/07/07 01:42:38;;;;;;;1.63;1.47;;;15.50;99.90;;;-141.84;59.79;19941.88;5032721;28;20316;-61
2022/07/07 01:45:08;;;;;;;4.30;1.55;;;15.30;99.90;;;-141.84;62.79;19893.09;5032659;28;20305;-60
2022/07/07 01:47:37;;;;;;;2.97;1.50;;;15.20;99.90;;;-141.84;63.31;19866.69;5032537;28;20293;-60
2022/07/07 01:50:06;;;;;;;2.77;1.30;;;15.00;99.90;;;-141.84;63.00;19834.16;5033344;28;20293;-60
2022/07/07 01:52:35;;;;;;;1.63;1.48;;;14.70;99.90;;;-141.84;66.79;19809.78;5032730;28;20651;-60
2022/07/07 01:55:04;;;;;;;2.83;1.67;;;14.60;99.90;;;-141.84;68.78;19744.75;5032811;28;20285;-60
2022/07/07 01:57:33;;;;;;;3.80;1.80;;;14.50;99.90;;;-141.84;69.94;19756.94;5032547;28;20620;-59
2022/07/07 02:00:02;;;;;;;3.47;1.90;;;14.30;99.90;;;-141.84;70.50;19777.25;5032460;28;20895;-59
2022/07/07 02:02:30;;;;;;;3.43;1.93;;;14.30;99.90;;;-141.84;72.02;19777.25;5032481;28;20260;-61
2022/07/07 02:04:58;;;;;;;3.73;1.60;;;14.20;99.90;;;-141.84;73.14;19758.97;5033009;28;20225;-60
2022/07/07 02:07:26;;;;;;;3.23;1.97;;;14.20;99.90;;;-141.84;73.82;19750.84;5032366;28;20647;-60
2022/07/07 02:09:55;;;;;;;2.53;1.80;;;14.20;99.90;;;-141.84;74.17;19752.88;5032648;28;20300;-60
2022/07/07 02:12:23;;;;;;;2.40;2.13;;;14.20;99.90;;;-141.84;73.64;19728.47;5032097;28;20313;-60
2022/07/07 02:14:52;;;;;;;2.03;1.83;;;14.10;99.90;;;-141.84;75.27;19698.00;5032691;28;20221;-59
2022/07/07 02:17:20;;;;;;;1.90;1.70;;;14.20;99.90;;;-141.84;76.12;19708.16;5032274;28;20237;-61
2022/07/07 02:19:49;;;;;;;2.37;2.17;;;14.20;99.90;;;-141.84;75.96;19700.03;5032509;28;20336;-60
2022/07/07 02:22:17;;;;;;;2.40;2.20;;;14.20;99.90;;;-141.84;76.45;19702.06;5032438;28;20226;-60
2022/07/07 02:24:47;;;;;;;4.03;2.50;;;14.20;99.90;;;-141.84;77.21;19728.47;5032208;28;20240;-60
2022/07/07 02:27:15;;;;;;;3.97;2.00;;;14.20;99.90;;;-141.84;76.12;19720.34;5032240;28;20213;-59
2022/07/07 02:29:43;;;;;;;2.50;2.30;;;14.20;99.90;;;-141.84;77.42;19708.16;5031893;28;20632;-60
2022/07/07 02:32:13;;;;;;;3.57;2.43;;;14.30;99.90;;;-141.84;77.37;19667.50;5032288;28;20228;-60
2022/07/07 02:34:41;;;;;;;3.40;2.60;;;14.30;99.90;;;-141.84;76.88;19724.41;5031698;28;20301;-60
2022/07/07 02:37:09;;;;;;;4.33;2.40;;;14.30;99.90;;;-141.84;76.24;19714.25;5031896;28;20773;-59
2022/07/07 02:39:37;;;;;;;5.27;2.30;;;14.30;99.90;;;-141.84;76.49;19732.53;5031687;28;20226;-60
2022/07/07 02:42:06;;;;;;;4.20;2.50;;;14.20;99.90;;;-141.84;77.56;19708.16;5031309;28;20308;-61
2022/07/07 02:44:34;;;;;;;4.23;2.57;;;14.30;99.90;;;-141.84;78.37;19683.78;5032043;28;20221;-60
2022/07/07 02:47:02;;;;;;;4.20;2.90;;;14.30;99.90;;;-141.84;79.89;19661.41;5032022;28;20233;-60
2022/07/07 02:49:32;;;;;;;4.73;3.17;;;14.30;99.90;;;-141.84;80.69;19628.91;5031365;28;20719;-60
2022/07/07 02:52:00;;;;;;;3.43;2.83;;;14.30;99.90;;;-141.84;81.71;19641.09;5031373;28;20261;-60
2022/07/07 02:54:28;;;;;;;4.40;2.80;;;14.20;99.90;;;-141.84;79.26;19663.44;5031646;28;20309;-59
2022/07/07 02:56:56;;;;;;;3.60;2.53;;;14.30;99.90;;;-141.84;81.20;19673.59;5031231;28;20309;-60
2022/07/07 02:59:24;;;;;;;3.20;2.90;;;14.30;99.90;;;-141.84;80.69;19659.38;5031750;28;20217;-60
2022/07/07 03:01:52;;;;;;;4.20;2.40;;;14.30;99.90;;;-141.84;80.54;19671.56;5031829;28;20289;-59
2022/07/07 03:04:21;;;;;;;3.50;2.37;;;14.30;99.90;;;-141.84;80.18;19687.84;5031323;28;20234;-59
2022/07/07 03:06:50;;;;;;;3.33;2.57;;;14.40;99.90;;;-141.84;80.69;19665.47;5031068;28;20317;-60
2022/07/07 03:09:18;;;;;;;3.57;2.60;;;14.40;99.90;;;-141.84;81.72;19659.38;5031417;28;20222;-60
2022/07/07 03:11:46;;;;;;;3.43;2.50;;;14.40;99.90;;;-141.84;80.07;19687.84;5030977;28;20309;-61
2022/07/07 03:14:14;;;;;;;2.63;2.23;;;14.40;99.90;;;-141.84;78.34;19689.88;5031962;28;20237;-59
2022/07/07 03:16:43;;;;;;;3.30;2.13;;;14.50;99.90;;;-141.84;79.36;19659.38;5031034;28;20217;-59
2022/07/07 03:19:11;;;;;;;2.63;2.17;;;14.40;99.90;;;-141.84;79.23;19687.84;5031003;28;20316;-61
2022/07/07 03:21:39;;;;;;;3.50;2.40;;;14.40;99.90;;;-141.84;78.36;19700.03;5031280;28;20238;-61
2022/07/07 03:24:09;;;;;;;2.77;2.10;;;14.50;99.90;;;-141.84;78.73;19655.31;5030941;28;20229;-60
2022/07/07 03:26:37;;;;;;;4.07;2.70;;;14.50;99.90;;;-141.84;79.82;19667.50;5031090;28;20289;-59
2022/07/07 03:29:05;;;;;;;3.63;2.40;;;14.50;99.90;;;-141.84;80.21;19667.50;5030977;28;20641;-59
2022/07/07 03:31:33;;;;;;;4.33;2.03;;;14.50;99.90;;;-141.84;80.09;19651.25;5030632;28;20338;-60
2022/07/07 03:34:01;;;;;;;5.70;2.30;;;14.60;99.90;;;-141.84;76.74;19716.28;5030932;28;20236;-59
2022/07/07 03:36:30;;;;;;;3.50;2.40;;;14.60;99.90;;;-141.84;78.29;19704.09;5030799;28;20611;-60
2022/07/07 03:38:58;;;;;;;4.10;2.00;;;14.60;99.90;;;-141.84;78.75;19695.97;5030703;28;20217;-59
2022/07/07 03:41:28;;;;;;;3.33;1.80;;;14.50;99.90;;;-141.84;77.56;19724.41;5030547;28;20213;-60
2022/07/07 03:43:56;;;;;;;2.90;2.07;;;14.50;99.90;;;-141.84;77.54;19728.47;5030926;28;20310;-59
2022/07/07 03:46:24;;;;;;;2.93;2.00;;;14.50;99.90;;;-141.84;79.09;19698.00;5030433;28;20683;-59
2022/07/07 03:48:52;;;;;;;3.60;2.27;;;14.40;99.90;;;-141.84;79.37;19632.97;5030675;28;20236;-61
2022/07/07 03:51:20;;;;;;;3.17;2.40;;;14.40;99.90;;;-141.84;81.30;19632.97;5030367;28;20226;-60
2022/07/07 03:53:48;;;;;;;2.37;2.17;;;14.30;99.90;;;-141.84;81.17;19608.56;5030447;28;20230;-60
2022/07/07 03:56:16;;;;;;;3.57;2.33;;;14.30;99.90;;;-141.84;82.00;19606.53;5030945;28;20202;-60
2022/07/07 03:58:46;;;;;;;2.50;2.30;;;14.30;99.90;;;-141.84;80.25;19657.34;5030402;28;20256;-59
2022/07/07 04:01:14;;;;;;;4.93;2.33;;;14.30;99.90;;;-141.84;80.13;19614.66;5030107;28;20650;-60
2022/07/07 04:03:42;;;;;;;2.93;2.40;;;14.30;99.90;;;-141.84;80.81;19643.13;5030365;28;20233;-61
2022/07/07 04:06:10;;;;;;;3.57;2.63;;;14.40;99.90;;;-141.84;80.60;19628.91;5030191;28;20229;-60
2022/07/07 04:08:39;;;;;;;4.67;2.80;;;14.40;99.90;;;-141.84;79.75;19659.38;5030080;28;20252;-62
2022/07/07 04:11:07;;;;;;;2.77;2.43;;;14.40;99.90;;;-141.84;79.87;19665.47;5030648;28;20194;-60
2022/07/07 04:13:35;;;;;;;2.93;2.60;;;14.40;99.90;;;-141.84;79.75;19675.63;5030123;28;20230;-60
2022/07/07 04:16:05;;;;;;;4.23;2.73;;;14.50;99.90;;;-141.84;81.06;19657.34;5030129;28;20667;-60
2022/07/07 04:18:33;;;;;;;5.47;2.80;;;14.50;99.90;;;-141.84;81.82;19610.59;5030301;28;20604;-60
2022/07/07 04:21:02;;;;;;;3.72;2.78;;;14.50;99.90;;;-141.84;80.83;19614.66;5029884;28;20284;-60
2022/07/07 04:23:30;;;;;;;5.37;2.83;;;14.50;99.90;;;-141.84;80.15;19651.25;5030114;28;20627;-59
2022/07/07 04:25:58;;;;;;;3.93;2.67;;;14.50;99.90;;;-141.84;80.93;19645.16;5030363;28;20208;-61
2022/07/07 04:28:26;;;;;;;4.83;2.77;;;14.60;99.90;;;-141.84;80.50;19635.00;5029736;28;20317;-60
2022/07/07 04:30:55;;;;;;;3.10;2.80;;;14.60;99.90;;;-141.84;80.10;19655.31;5029998;28;20313;-58
2022/07/07 04:33:24;;;;;;;6.00;2.60;;;14.70;99.90;;;-141.84;80.29;19679.72;5029634;28;20283;-60
2022/07/07 04:35:53;;;;;;;3.50;2.67;;;14.70;99.90;;;-141.84;78.92;19683.78;5030324;28;20236;-58
2022/07/07 04:38:21;;;;;;;4.93;2.60;;;14.80;99.90;;;-141.84;77.32;19718.31;5030305;28;20213;-60
2022/07/07 04:40:49;;;;;;;4.27;2.93;;;14.90;99.90;;;-141.84;77.94;19716.28;5030913;28;20301;-59
2022/07/07 04:43:17;;;;;;;6.00;2.67;;;14.90;99.90;;;-141.84;77.64;19708.16;5033269;28;20224;-60
2022/07/07 04:45:45;;;;;;;3.77;2.80;;;15.00;99.90;;;-141.84;78.62;19698.00;5034021;28;20321;-59
2022/07/07 04:48:13;;;;;;;4.10;2.92;;;15.00;99.90;;;-141.84;79.44;19706.13;5033935;28;20280;-59
2022/07/07 04:50:43;;;;;;;2.93;2.30;;;15.00;99.90;;;-141.84;78.29;19730.50;5033867;28;20222;-60
2022/07/07 04:53:11;;;;;;;3.58;2.53;;;15.00;99.90;;;-141.84;78.57;19695.97;5033871;28;20206;-60
2022/07/07 04:55:39;;;;;;;4.53;2.93;;;15.00;99.90;;;-141.84;78.04;19702.06;5034140;28;20228;-60
2022/07/07 04:58:07;;;;;;;5.07;3.43;;;15.00;99.90;;;-141.84;79.32;19669.53;5033336;28;20316;-61
2022/07/07 05:00:35;;;;;;;3.30;3.00;;;14.90;99.90;;;-141.84;80.42;19618.75;5033486;28;20257;-60
2022/07/07 05:03:03;;;;;;;4.60;3.57;;;14.90;99.90;;;-141.84;81.04;19635.00;5033683;28;20642;-60
2022/07/07 05:05:31;;;;;;;6.97;4.00;;;14.70;99.90;;;-141.84;82.11;19635.00;5033390;28;20225;-60
2022/07/07 05:08:01;;;;;;;4.37;4.00;;;14.60;99.90;;;-141.84;83.51;19590.28;5033714;28;20202;-59
2022/07/07 05:10:29;;;;;;;4.50;4.10;;;14.50;99.90;;;-141.84;84.42;19539.47;5034111;28;20230;-60
2022/07/07 05:12:57;;;;;;;6.53;4.50;;;14.40;99.90;;;-141.84;85.31;19572.00;5013526;28;20257;-59
2022/07/07 05:15:26;;;;;;;4.80;4.40;;;14.20;99.90;;;-141.84;85.20;19541.50;5013513;28;20323;-60
2022/07/07 05:17:54;;;;;;;7.10;4.40;;;14.20;99.90;;;-141.84;85.21;19557.78;5013575;28;20439;-59
2022/07/07 05:20:26;;;;;;;5.37;4.87;;;14.20;99.90;;;-141.84;86.35;19531.34;5020322;28;20591;-60
2022/07/07 05:22:55;;;;;;;6.03;5.10;;;14.10;99.90;;;-141.84;85.75;19517.13;5033811;28;20233;-60
2022/07/07 05:25:24;;;;;;;5.50;4.97;;;14.10;99.90;;;-141.84;86.00;19553.72;5033297;28;20341;-59
2022/07/07 05:27:53;;;;;;;5.83;5.13;;;14.20;99.90;;;-141.84;86.62;19525.25;5032960;28;20713;-59
2022/07/07 05:30:21;;;;;;;6.70;5.23;;;14.20;99.90;;;-141.84;86.47;19545.56;5032786;28;20385;-59
2022/07/07 05:32:49;;;;;;;5.07;4.57;;;14.20;99.90;;;-141.84;85.52;19545.56;5033232;28;20233;-59
2022/07/07 05:35:17;;;;;;;5.80;5.27;;;14.30;99.90;;;-141.84;86.80;19527.28;5033472;28;20238;-60
2022/07/07 05:37:46;;;;;;;6.07;5.27;;;14.30;99.90;;;-141.84;87.72;19496.81;5033310;28;20312;-60
2022/07/07 05:40:14;;;;;;;5.17;4.57;;;14.30;99.90;;;-141.84;87.75;19521.19;5032839;28;20234;-60
2022/07/07 05:42:44;;;;;;;6.07;5.47;;;14.30;99.90;;;-141.84;87.38;19500.88;5032610;28;20217;-58
2022/07/07 05:45:19;;;;;;;5.20;4.67;;;14.20;99.90;;;-141.84;87.19;19474.44;5032944;28;20229;-60
2022/07/07 05:47:47;;;;;;;6.70;5.60;;;14.20;99.90;;;-141.84;87.67;19486.66;5032634;28;20657;-59
2022/07/07 05:50:16;;;;;;;7.30;5.13;;;14.10;99.90;;;-141.84;87.90;19450.06;5033228;28;20298;-60
2022/07/07 05:52:44;;;;;;;7.63;5.90;;;14.10;99.90;;;-141.84;88.27;19458.19;5032161;28;20618;-60
2022/07/07 05:55:12;;;;;;;10.13;5.50;;;14.10;99.90;;;-141.84;89.88;19427.72;5032581;28;20232;-60
2022/07/07 05:57:40;;;;;;;6.30;5.50;;;14.10;99.90;;;-141.84;90.28;19326.09;5031814;28;20242;-60
2022/07/07 06:00:11;;;;;;;6.13;5.40;;;13.90;99.90;;;-141.84;91.03;19257.00;5032398;28;20218;-61
2022/07/07 06:02:39;;;;;;;5.83;5.33;;;13.90;99.90;;;-141.84;91.42;19216.38;5032535;28;20314;-60
2022/07/07 06:05:08;;;;;;;8.83;5.50;;;13.90;99.90;;;-141.84;90.19;19194.03;5033150;28;20222;-61
2022/07/07 06:07:37;;;;;;;8.77;6.17;;;13.90;99.90;;;-141.84;90.47;19269.22;5032506;28;20304;-61
2022/07/07 06:10:10;;;;;;;6.20;5.50;;;13.90;99.90;;;-141.84;88.61;19250.91;5032423;28;20330;-59
2022/07/07 06:12:38;;;;;;;8.83;6.30;;;14.00;99.90;;;-141.84;89.75;19212.31;5032072;28;20313;-59
2022/07/07 06:15:09;;;;;;;7.57;5.77;;;14.00;99.90;;;-141.84;89.62;19216.38;5032280;28;20824;-60
2022/07/07 06:17:37;;;;;;;8.20;5.90;;;14.00;99.90;;;-141.84;90.41;19206.22;5032325;28;21179;-59
2022/07/07 06:20:26;;;;;;;6.33;5.83;;;14.00;99.90;;;-141.84;90.46;19167.59;5032239;28;20225;-61
2022/07/07 06:22:54;;;;;;;7.73;6.93;;;14.10;99.90;;;-141.84;89.45;19165.56;5032449;28;20665;-62
2022/07/07 06:25:22;;;;;;;7.07;6.23;;;14.10;99.90;;;-141.84;89.91;19149.31;5032289;28;20240;-58
2022/07/07 06:27:50;;;;;;;8.50;6.37;;;14.10;99.90;;;-141.84;91.00;19118.84;5031542;28;20232;-60
2022/07/07 06:30:20;;;;;;;8.70;6.90;;;14.10;99.90;;;-141.84;90.59;19124.94;5032126;28;20231;-60
2022/07/07 06:32:48;;;;;;;9.17;7.13;;;14.00;99.90;;;-141.84;91.18;19096.47;5032138;28;20328;-60
2022/07/07 06:35:16;;;;;;;8.67;7.30;;;14.10;99.90;;;-141.84;92.59;19055.84;5032771;28;20202;-59
2022/07/07 06:37:44;;;;;;;8.40;7.20;;;14.10;99.90;;;-141.84;91.21;19070.06;5032192;28;20221;-59
2022/07/07 06:40:13;;;;;;;7.63;6.93;;;14.20;99.90;;;-141.84;90.74;19078.19;5031459;28;20767;-60
2022/07/07 06:42:42;;;;;;;7.73;7.03;;;14.20;99.90;;;-141.84;91.85;18976.59;5031455;28;20298;-59
2022/07/07 06:45:11;;;;;;;8.80;7.60;;;14.30;99.90;;;-141.84;91.26;19003.00;5031418;28;20322;-60
2022/07/07 06:47:40;;;;;;;9.60;7.87;;;14.30;99.90;;;-141.84;91.74;18940.03;5031624;28;20313;-58
2022/07/07 06:50:09;;;;;;;8.23;7.47;;;14.40;99.90;;;-141.84;92.19;18923.78;5031732;28;20297;-59
2022/07/07 06:52:38;;;;;;;8.57;7.63;;;14.40;99.90;;;-141.84;92.06;18929.88;5031522;28;20252;-58
2022/07/07 06:55:07;;;;;;;8.00;7.30;;;14.40;99.90;;;-141.84;89.80;18956.28;5031248;28;20234;-60
2022/07/07 06:57:39;;;;;;;8.30;7.50;;;14.50;99.90;;;-141.84;90.37;18970.50;5031503;28;20237;-61
2022/07/07 07:00:10;;;;;;;7.77;6.97;;;14.50;99.90;;;-141.84;90.80;18919.69;5031366;28;20218;-60
2022/07/07 07:02:44;;;;;;;7.83;7.23;;;14.50;99.90;;;-141.84;91.30;18899.38;5031523;28;20233;-60
2022/07/07 07:05:13;;;;;;;9.33;7.80;;;14.50;99.90;;;-141.84;92.38;18862.81;5030758;28;20248;-59
2022/07/07 07:07:41;;;;;;;10.73;9.67;;;14.60;99.90;;;-141.84;91.78;18856.72;5030964;28;20234;-60
2022/07/07 07:10:10;;;;;;;8.27;7.47;;;14.50;99.90;;;-141.84;90.86;18891.25;5031059;28;20258;-59
2022/07/07 07:12:39;;;;;;;8.47;7.63;;;14.50;99.90;;;-141.84;89.87;18899.38;5030778;28;20607;-59
2022/07/07 07:15:10;;;;;;;9.63;8.20;;;14.60;99.90;;;-141.84;91.44;18872.97;5030887;28;20252;-60
2022/07/07 07:17:38;;;;;;;10.77;7.73;;;14.60;99.90;;;-141.84;91.91;18838.44;5031240;28;20233;-59
2022/07/07 07:20:09;;;;;;;8.63;7.73;;;14.60;99.90;;;-141.84;91.54;18852.66;5031340;28;20616;-59
2022/07/07 07:22:38;;;;;;;8.80;8.00;;;14.60;99.90;;;-141.84;92.10;18799.81;5030842;28;20249;-60
2022/07/07 07:25:07;;;;;;;8.23;7.53;;;14.60;99.90;;;-141.84;92.67;18773.41;5030561;28;20317;-60
2022/07/07 07:27:36;;;;;;;8.77;7.87;;;14.60;99.90;;;-141.84;92.30;18732.78;5030883;28;20228;-59
2022/07/07 07:30:06;;;;;;;8.70;7.97;;;14.60;99.90;;;-141.84;90.81;18761.22;5030715;28;20261;-59
2022/07/07 07:32:34;;;;;;;9.00;8.10;;;14.80;99.90;;;-141.84;92.28;18716.53;5030703;28;20249;-59
2022/07/07 07:35:02;;;;;;;10.57;8.70;;;14.50;99.90;;;-141.84;92.21;18688.06;5030986;28;20721;-59
2022/07/07 07:37:32;;;;;;;9.70;8.70;;;14.60;99.90;;;-141.84;93.42;18665.72;5030535;28;20631;-59
2022/07/07 07:40:00;;;;;;;8.93;8.20;;;14.70;99.90;;;-141.84;90.86;18755.13;5030552;28;20320;-59
2022/07/07 07:42:28;;;;;;;8.07;7.40;;;14.80;99.90;;;-141.84;90.39;18795.75;5030929;28;20235;-58
2022/07/07 07:45:12;;;;;;;7.97;7.37;;;14.80;99.90;;;-141.84;90.43;18765.28;5030939;28;20421;-60
2022/07/07 07:47:43;;;;;;;8.20;7.60;;;14.70;99.90;;;-141.84;91.16;18736.84;5030480;28;20264;-59
2022/07/07 07:50:13;;;;;;;9.63;8.73;;;14.70;99.90;;;-141.84;91.42;18647.44;5030661;28;20251;-59
2022/07/07 07:52:46;;;;;;;9.00;8.20;;;14.70;99.90;;;-141.84;92.39;18669.78;5030651;28;20226;-60
2022/07/07 07:55:18;;;;;;;9.23;8.33;;;14.70;99.90;;;-141.84;91.44;18696.19;5030584;28;20723;-58
2022/07/07 07:57:46;;;;;;;9.27;8.27;;;14.60;99.90;;;-141.84;91.89;18655.56;5030636;28;20292;-60
2022/07/07 08:00:17;;;;;;;9.43;8.50;;;14.50;99.90;;;-141.84;91.93;18606.81;5030559;28;20336;-60
2022/07/07 08:02:47;;;;;;;10.03;9.23;;;14.50;99.90;;;-141.84;92.45;18623.06;5030236;28;20224;-58
2022/07/07 08:05:17;;;;;;;9.93;8.97;;;14.50;99.90;;;-141.84;93.35;18560.06;5030724;28;20210;-59
2022/07/07 08:07:47;;;;;;;10.60;9.60;;;14.60;99.90;;;-141.84;94.13;18486.94;5010976;28;20305;-60
2022/07/07 08:10:17;;;;;;;10.87;9.67;;;14.60;99.90;;;-141.84;93.24;18570.22;5024602;28;20233;-59
2022/07/07 08:12:47;;;;;;;9.43;8.53;;;14.60;99.90;;;-141.84;92.88;18570.22;5029788;28;20284;-58
2022/07/07 08:15:17;;;;;;;9.20;8.37;;;14.70;99.90;;;-141.84;91.07;18614.94;5029391;28;20260;-57
2022/07/07 08:17:48;;;;;;;10.27;9.37;;;14.60;99.90;;;-141.84;92.24;18600.72;5029822;28;20232;-55
2022/07/07 08:20:17;;;;;;;10.60;9.60;;;14.60;99.90;;;-141.84;92.48;18533.66;5029812;28;20674;-52
2022/07/07 08:22:46;;;;;;;10.83;9.83;;;14.60;99.90;;;-141.84;93.20;18503.19;5030391;28;20224;-60
2022/07/07 08:25:14;;;;;;;10.93;9.87;;;14.70;99.90;;;-141.84;92.96;18501.16;5029793;28;20328;-60
2022/07/07 08:27:42;;;;;;;10.70;9.77;;;14.70;99.90;;;-141.84;93.56;18109.06;5029820;28;20226;-61
2022/07/07 08:30:11;;;;;;;11.77;10.73;;;14.70;99.90;;;-141.84;94.51;17830.75;5029996;28;20304;-60
2022/07/07 08:32:43;;;;;;;11.37;10.37;;;14.70;99.90;;;-141.84;94.26;17834.81;5029959;28;20303;-60
2022/07/07 08:35:12;;;;;;;11.67;10.67;;;14.80;99.90;;;-141.84;92.07;17966.88;5030454;28;20190;-60
2022/07/07 08:37:41;;;;;;;12.20;11.13;;;14.90;99.90;;;-141.84;92.43;17942.50;5029602;28;20317;-60
2022/07/07 08:40:11;;;;;;;11.57;10.47;;;14.90;99.90;;;-141.84;93.14;17887.63;5029515;28;20638;-59
2022/07/07 08:42:40;;;;;;;12.10;11.10;;;15.00;99.90;;;-141.84;92.15;17932.34;5029389;28;20857;-59
2022/07/07 08:45:10;;;;;;;11.00;10.10;;;15.00;99.90;;;-141.84;91.28;18042.03;5029636;28;20304;-60
2022/07/07 08:47:38;;;;;;;12.00;10.90;;;15.10;99.90;;;-141.84;91.24;18088.75;5029563;28;20238;-60
2022/07/07 08:50:16;;;;;;;11.80;10.73;;;15.20;99.90;;;-141.84;90.38;18170.00;5030217;28;20210;-60
2022/07/07 08:52:45;;;;;;;11.73;10.63;;;15.30;99.90;;;-141.84;91.57;18001.41;5029716;28;20657;-60
2022/07/07 08:55:17;;;;;;;11.43;10.53;;;15.40;99.90;;;-141.84;91.67;17956.72;5029412;28;20304;-60
2022/07/07 08:57:45;;;;;;;12.43;11.07;;;15.40;99.90;;;-141.84;90.36;18135.47;5029154;28;20745;-60
2022/07/07 09:00:14;;;;;;;12.50;11.40;;;15.40;99.90;;;-141.84;91.39;17977.03;5029402;28;20788;-60
2022/07/07 09:02:42;;;;;;;12.30;11.20;;;15.30;99.90;;;-141.84;91.12;18042.03;5029329;28;20226;-60
2022/07/07 09:05:10;;;;;;;10.95;10.02;;;15.40;99.90;;;-141.84;90.71;18078.59;5029864;28;20229;-60
2022/07/07 09:07:47;;;;;;;12.30;11.20;;;15.40;99.90;;;-141.84;90.46;18056.25;5029396;28;20230;-59
2022/07/07 09:10:32;;;;;;;14.30;11.27;;;15.40;99.90;;;-141.84;90.98;17999.38;5029227;28;20236;-61
2022/07/07 09:13:02;;;;;;;11.85;10.73;;;15.50;99.90;;;-141.84;90.84;17989.22;5009371;28;20672;-63
2022/07/07 09:15:40;;;;;;;12.60;11.40;;;15.50;99.90;;;-141.84;90.80;18048.13;5019091;28;20218;-62
2022/07/07 09:18:08;;;;;;;11.45;10.35;;;15.50;99.90;;;-141.84;91.05;18025.78;5029136;28;20308;-62
2022/07/07 09:20:36;;;;;;;12.77;11.60;;;15.50;99.90;;;-141.84;90.89;18017.66;5029121;28;20214;-61
2022/07/07 09:23:05;;;;;;;11.13;10.23;;;15.50;99.90;;;-141.84;89.45;18243.16;5029733;28;20260;-60
2022/07/07 09:25:34;;;;;;;12.85;11.65;;;15.60;99.90;;;-141.84;90.73;18033.91;5029039;28;20351;-59
2022/07/07 09:28:05;;;;;;;12.60;11.57;;;15.60;99.90;;;-141.84;89.68;18167.97;5030555;28;20321;-60
2022/07/07 09:30:37;;;;;;;12.50;11.40;;;15.70;99.90;;;-141.84;90.85;18003.44;5032805;28;20317;-58
2022/07/07 09:33:08;;;;;;;12.98;11.88;;;15.60;99.90;;;-141.84;90.99;18009.53;5032634;28;20758;-57
2022/07/07 09:38:27;;;;;;;12.57;11.30;;;15.70;99.90;;;-141.84;89.91;18192.34;5031007;28;20195;-61
2022/07/07 09:41:01;;;;;;;12.50;11.30;;;15.80;99.90;;;-141.84;89.00;18293.94;5033356;28;20229;-60
2022/07/07 09:43:33;;;;;;;11.03;9.90;;;15.90;99.90;;;-141.84;87.97;18407.69;5044068;28;20221;-59
2022/07/07 09:46:15;;;;;;;11.73;10.63;;;16.00;99.90;;;-141.84;88.08;18462.56;5052460;28;20316;-61
2022/07/07 09:48:46;;;;;;;11.80;10.70;;;16.00;99.90;;;-141.84;88.96;18346.75;5052243;28;20237;-60
2022/07/07 09:51:22;;;;;;;12.32;11.10;;;16.10;99.90;;;-141.84;88.88;18328.47;5039142;28;20593;-59
2022/07/07 09:54:04;;;;;;;11.77;10.68;;;16.30;99.90;;;-141.84;88.07;18474.75;5032652;28;20317;-61
2022/07/07 09:56:36;;;;;;;11.40;10.30;;;16.50;99.90;;;-141.84;85.03;18854.69;5032598;28;20183;-59
2022/07/07 09:59:08;;;;;;;10.80;9.77;;;16.60;99.90;;;-141.84;84.33;18982.69;5033111;28;20190;-61
2022/07/07 10:01:40;;;;;;;9.88;9.05;;;16.60;99.90;;;-141.84;84.97;18907.50;5032016;28;20253;-61
2022/07/07 10:04:10;;;;;;;10.30;9.40;;;16.60;99.90;;;-141.84;86.36;18773.41;5032597;28;20889;-59
2022/07/07 10:06:41;;;;;;;10.50;9.40;;;16.50;99.90;;;-141.84;86.43;18722.63;5032368;28;20229;-60
2022/07/07 10:09:12;;;;;;;10.55;9.60;;;16.40;99.90;;;-141.84;86.34;18712.47;5032242;28;20785;-58
2022/07/07 10:11:44;;;;;;;11.32;10.32;;;16.40;99.90;;;-141.84;86.91;18688.06;5031990;28;20340;-59
2022/07/07 10:14:16;;;;;;;10.77;9.30;;;16.40;99.90;;;-141.84;87.01;18659.63;5032328;28;20655;-61